sensor_id;sensor_type;location;lat;lon;timestamp;temperature;humidity
4910;DHT22;2470;49.868;8.660;2022-10-18T00:01:39;18.70;99.90
4910;DHT22;2470;49.868;8.660;2022-10-18T00:04:04;18.80;99.90
4910;DHT22;2470;49.868;8.660;2022-10-18T00:06:30;18.80;99.90
4910;DHT22;2470;49.868;8.660;2022-10-18T00:08:55;18.90;99.90
4910;DHT22;2470;49.868;8.660;2022-10-18T00:11:21;18.80;99.90
4910;DHT22;2470;49.868;8.660;2022-10-18T00:13:46;18.80;99.90
4910;DHT22;2470;49.868;8.660;2022-10-18T00:16:15;18.80;99.90
4910;DHT22;2470;49.868;8.660;2022-10-18T00:18:41;18.70;99.90
4910;DHT22;2470;49.868;8.660;2022-10-18T00:21:14;18.70;99.90
4910;DHT22;2470;49.868;8.660;2022-10-18T00:23:40;18.70;99.90
4910;DHT22;2470;49.868;8.660;2022-10-18T00:26:15;18.70;99.90
4910;DHT22;2470;49.868;8.660;2022-10-18T00:28:42;18.70;99.90
4910;DHT22;2470;49.868;8.660;2022-10-18T00:31:19;18.70;99.90
4910;DHT22;2470;49.868;8.660;2022-10-18T00:33:49;18.70;99.90
4910;DHT22;2470;49.868;8.660;2022-10-18T00:36:15;18.80;99.90
4910;DHT22;2470;49.868;8.660;2022-10-18T00:38:41;18.70;99.90
4910;DHT22;2470;49.868;8.660;2022-10-18T00:41:09;18.70;99.90
4910;DHT22;2470;49.868;8.660;2022-10-18T00:46:23;18.70;99.90
4910;DHT22;2470;49.868;8.660;2022-10-18T00:48:49;18.70;99.90
4910;DHT22;2470;49.868;8.660;2022-10-18T00:51:18;18.70;99.90
4910;DHT22;2470;49.868;8.660;2022-10-18T00:54:11;18.70;99.90
4910;DHT22;2470;49.868;8.660;2022-10-18T00:56:44;18.70;99.90
4910;DHT22;2470;49.868;8.660;2022-10-18T00:59:11;18.70;99.90
4910;DHT22;2470;49.868;8.660;2022-10-18T01:01:38;18.70;99.90
4910;DHT22;2470;49.868;8.660;2022-10-18T01:04:03;18.70;99.90
4910;DHT22;2470;49.868;8.660;2022-10-18T01:06:29;18.70;99.90
4910;DHT22;2470;49.868;8.660;2022-10-18T01:09:21;18.70;99.90
4910;DHT22;2470;49.868;8.660;2022-10-18T01:15:15;18.70;99.90
4910;DHT22;2470;49.868;8.660;2022-10-18T01:21:20;18.80;99.90
4910;DHT22;2470;49.868;8.660;2022-10-18T01:24:06;18.80;99.90
4910;DHT22;2470;49.868;8.660;2022-10-18T01:27:09;18.80;99.90
4910;DHT22;2470;49.868;8.660;2022-10-18T01:32:38;18.80;99.90
4910;DHT22;2470;49.868;8.660;2022-10-18T01:35:10;18.80;99.90
4910;DHT22;2470;49.868;8.660;2022-10-18T01:37:39;18.90;99.90
4910;DHT22;2470;49.868;8.660;2022-10-18T01:40:06;18.80;99.90
4910;DHT22;2470;49.868;8.660;2022-10-18T01:42:33;18.80;99.90
4910;DHT22;2470;49.868;8.660;2022-10-18T01:45:00;18.80;99.90
4910;DHT22;2470;49.868;8.660;2022-10-18T01:47:26;18.70;99.90
4910;DHT22;2470;49.868;8.660;2022-10-18T01:49:58;18.70;99.90
4910;DHT22;2470;49.868;8.660;2022-10-18T01:52:24;18.70;99.90
4910;DHT22;2470;49.868;8.660;2022-10-18T01:54:50;18.70;99.90
4910;DHT22;2470;49.868;8.660;2022-10-18T01:57:28;18.70;99.90
4910;DHT22;2470;49.868;8.660;2022-10-18T02:00:02;18.70;99.90
4910;DHT22;2470;49.868;8.660;2022-10-18T02:02:47;18.50;99.90
4910;DHT22;2470;49.868;8.660;2022-10-18T02:08:33;18.50;99.90
4910;DHT22;2470;49.868;8.660;2022-10-18T02:11:07;18.40;99.90
4910;DHT22;2470;49.868;8.660;2022-10-18T02:16:12;18.30;99.90
4910;DHT22;2470;49.868;8.660;2022-10-18T02:21:28;18.30;99.90
4910;DHT22;2470;49.868;8.660;2022-10-18T02:23:54;18.30;99.90
4910;DHT22;2470;49.868;8.660;2022-10-18T02:26:22;18.30;99.90
4910;DHT22;2470;49.868;8.660;2022-10-18T02:28:47;18.30;99.90
4910;DHT22;2470;49.868;8.660;2022-10-18T02:31:30;18.30;99.90
4910;DHT22;2470;49.868;8.660;2022-10-18T02:34:03;18.20;99.90
4910;DHT22;2470;49.868;8.660;2022-10-18T02:36:41;18.20;99.90
4910;DHT22;2470;49.868;8.660;2022-10-18T02:39:12;18.20;99.90
4910;DHT22;2470;49.868;8.660;2022-10-18T02:41:39;18.20;99.90
4910;DHT22;2470;49.868;8.660;2022-10-18T02:44:05;18.20;99.90
4910;DHT22;2470;49.868;8.660;2022-10-18T02:46:32;18.20;99.90
4910;DHT22;2470;49.868;8.660;2022-10-18T02:48:58;18.20;99.90
4910;DHT22;2470;49.868;8.660;2022-10-18T02:51:24;18.30;99.90
4910;DHT22;2470;49.868;8.660;2022-10-18T02:53:49;18.20;99.90
4910;DHT22;2470;49.868;8.660;2022-10-18T02:56:15;18.20;99.90
4910;DHT22;2470;49.868;8.660;2022-10-18T02:58:41;18.20;99.90
4910;DHT22;2470;49.868;8.660;2022-10-18T03:01:06;18.20;99.90
4910;DHT22;2470;49.868;8.660;2022-10-18T03:03:32;18.20;99.90
4910;DHT22;2470;49.868;8.660;2022-10-18T03:05:57;18.20;99.90
4910;DHT22;2470;49.868;8.660;2022-10-18T03:08:23;18.20;99.90
4910;DHT22;2470;49.868;8.660;2022-10-18T03:10:49;18.20;99.90
4910;DHT22;2470;49.868;8.660;2022-10-18T03:13:15;18.30;99.90
4910;DHT22;2470;49.868;8.660;2022-10-18T03:15:40;18.30;99.90
4910;DHT22;2470;49.868;8.660;2022-10-18T03:18:06;18.30;99.90
4910;DHT22;2470;49.868;8.660;2022-10-18T03:20:33;18.30;99.90
4910;DHT22;2470;49.868;8.660;2022-10-18T03:22:58;18.30;99.90
4910;DHT22;2470;49.868;8.660;2022-10-18T03:25:24;18.30;99.90
4910;DHT22;2470;49.868;8.660;2022-10-18T03:27:49;18.30;99.90
4910;DHT22;2470;49.868;8.660;2022-10-18T03:30:15;18.30;99.90
4910;DHT22;2470;49.868;8.660;2022-10-18T03:32:40;18.20;99.90
4910;DHT22;2470;49.868;8.660;2022-10-18T03:35:07;18.20;99.90
4910;DHT22;2470;49.868;8.660;2022-10-18T03:37:33;18.20;99.90
4910;DHT22;2470;49.868;8.660;2022-10-18T03:39:59;18.20;99.90
4910;DHT22;2470;49.868;8.660;2022-10-18T03:42:24;18.10;99.90
4910;DHT22;2470;49.868;8.660;2022-10-18T03:44:50;18.20;99.90
4910;DHT22;2470;49.868;8.660;2022-10-18T03:47:16;18.20;99.90
4910;DHT22;2470;49.868;8.660;2022-10-18T03:49:41;18.20;99.90
4910;DHT22;2470;49.868;8.660;2022-10-18T03:52:07;18.20;99.90
4910;DHT22;2470;49.868;8.660;2022-10-18T03:54:32;18.10;99.90
4910;DHT22;2470;49.868;8.660;2022-10-18T03:56:58;18.20;99.90
4910;DHT22;2470;49.868;8.660;2022-10-18T03:59:23;18.10;99.90
4910;DHT22;2470;49.868;8.660;2022-10-18T04:01:49;18.10;99.90
4910;DHT22;2470;49.868;8.660;2022-10-18T04:04:15;18.10;99.90
4910;DHT22;2470;49.868;8.660;2022-10-18T04:06:40;18.20;99.90
4910;DHT22;2470;49.868;8.660;2022-10-18T04:09:06;18.20;99.90
4910;DHT22;2470;49.868;8.660;2022-10-18T04:11:32;18.20;99.90
4910;DHT22;2470;49.868;8.660;2022-10-18T04:13:58;18.20;99.90
4910;DHT22;2470;49.868;8.660;2022-10-18T04:16:23;18.20;99.90
4910;DHT22;2470;49.868;8.660;2022-10-18T04:18:49;18.20;99.90
4910;DHT22;2470;49.868;8.660;2022-10-18T04:21:15;18.10;99.90
4910;DHT22;2470;49.868;8.660;2022-10-18T04:23:40;18.10;99.90
4910;DHT22;2470;49.868;8.660;2022-10-18T04:26:06;18.10;99.90
4910;DHT22;2470;49.868;8.660;2022-10-18T04:28:33;18.20;99.90
4910;DHT22;2470;49.868;8.660;2022-10-18T04:30:59;18.20;99.90
4910;DHT22;2470;49.868;8.660;2022-10-18T04:33:24;18.30;99.90
4910;DHT22;2470;49.868;8.660;2022-10-18T04:35:51;18.30;99.90
4910;DHT22;2470;49.868;8.660;2022-10-18T04:38:18;18.30;99.90
4910;DHT22;2470;49.868;8.660;2022-10-18T04:40:43;18.30;99.90
4910;DHT22;2470;49.868;8.660;2022-10-18T04:43:09;18.30;99.90
4910;DHT22;2470;49.868;8.660;2022-10-18T04:45:35;18.30;99.90
4910;DHT22;2470;49.868;8.660;2022-10-18T04:48:00;18.30;99.90
4910;DHT22;2470;49.868;8.660;2022-10-18T04:50:26;18.30;99.90
4910;DHT22;2470;49.868;8.660;2022-10-18T04:52:51;18.40;99.90
4910;DHT22;2470;49.868;8.660;2022-10-18T04:55:18;18.40;99.90
4910;DHT22;2470;49.868;8.660;2022-10-18T04:57:43;18.40;99.90
4910;DHT22;2470;49.868;8.660;2022-10-18T05:00:09;18.40;99.90
4910;DHT22;2470;49.868;8.660;2022-10-18T05:02:35;18.40;99.90
4910;DHT22;2470;49.868;8.660;2022-10-18T05:05:00;18.40;99.90
4910;DHT22;2470;49.868;8.660;2022-10-18T05:07:26;18.40;99.90
4910;DHT22;2470;49.868;8.660;2022-10-18T05:09:51;18.40;99.90
4910;DHT22;2470;49.868;8.660;2022-10-18T05:12:17;18.40;99.90
4910;DHT22;2470;49.868;8.660;2022-10-18T05:14:42;18.40;99.90
4910;DHT22;2470;49.868;8.660;2022-10-18T05:17:08;18.40;99.90
4910;DHT22;2470;49.868;8.660;2022-10-18T05:19:33;18.30;99.90
4910;DHT22;2470;49.868;8.660;2022-10-18T05:21:59;18.30;99.90
4910;DHT22;2470;49.868;8.660;2022-10-18T05:24:24;18.30;99.90
4910;DHT22;2470;49.868;8.660;2022-10-18T05:26:50;18.20;99.90
4910;DHT22;2470;49.868;8.660;2022-10-18T05:29:15;18.30;99.90
4910;DHT22;2470;49.868;8.660;2022-10-18T05:31:41;18.30;99.90
4910;DHT22;2470;49.868;8.660;2022-10-18T05:34:06;18.30;99.90
4910;DHT22;2470;49.868;8.660;2022-10-18T05:36:32;18.30;99.90
4910;DHT22;2470;49.868;8.660;2022-10-18T05:38:57;18.30;99.90
4910;DHT22;2470;49.868;8.660;2022-10-18T05:41:23;18.30;99.90
4910;DHT22;2470;49.868;8.660;2022-10-18T05:43:48;18.30;99.90
4910;DHT22;2470;49.868;8.660;2022-10-18T05:46:14;18.30;99.90
4910;DHT22;2470;49.868;8.660;2022-10-18T05:48:41;18.30;99.90
4910;DHT22;2470;49.868;8.660;2022-10-18T05:51:07;18.30;99.90
4910;DHT22;2470;49.868;8.660;2022-10-18T05:53:32;18.30;99.90
4910;DHT22;2470;49.868;8.660;2022-10-18T05:56:01;18.30;99.90
4910;DHT22;2470;49.868;8.660;2022-10-18T05:58:27;18.30;99.90
4910;DHT22;2470;49.868;8.660;2022-10-18T06:00:53;18.30;99.90
4910;DHT22;2470;49.868;8.660;2022-10-18T06:03:18;18.30;99.90
4910;DHT22;2470;49.868;8.660;2022-10-18T06:05:43;18.30;99.90
4910;DHT22;2470;49.868;8.660;2022-10-18T06:08:09;18.30;99.90
4910;DHT22;2470;49.868;8.660;2022-10-18T06:10:37;18.30;99.90
4910;DHT22;2470;49.868;8.660;2022-10-18T06:13:03;18.30;99.90
4910;DHT22;2470;49.868;8.660;2022-10-18T06:15:28;18.30;99.90
4910;DHT22;2470;49.868;8.660;2022-10-18T06:17:54;18.30;99.90
4910;DHT22;2470;49.868;8.660;2022-10-18T06:20:19;18.30;99.90
4910;DHT22;2470;49.868;8.660;2022-10-18T06:22:45;18.30;99.90
4910;DHT22;2470;49.868;8.660;2022-10-18T06:25:10;18.30;99.90
4910;DHT22;2470;49.868;8.660;2022-10-18T06:27:36;18.30;99.90
4910;DHT22;2470;49.868;8.660;2022-10-18T06:30:02;18.30;99.90
4910;DHT22;2470;49.868;8.660;2022-10-18T06:32:28;18.30;99.90
4910;DHT22;2470;49.868;8.660;2022-10-18T06:34:53;18.30;99.90
4910;DHT22;2470;49.868;8.660;2022-10-18T06:37:19;18.20;99.90
4910;DHT22;2470;49.868;8.660;2022-10-18T06:39:44;18.20;99.90
4910;DHT22;2470;49.868;8.660;2022-10-18T06:42:10;18.20;99.90
4910;DHT22;2470;49.868;8.660;2022-10-18T06:44:35;18.30;99.90
4910;DHT22;2470;49.868;8.660;2022-10-18T06:47:01;18.30;99.90
4910;DHT22;2470;49.868;8.660;2022-10-18T06:49:26;18.30;99.90
4910;DHT22;2470;49.868;8.660;2022-10-18T06:51:52;18.30;99.90
4910;DHT22;2470;49.868;8.660;2022-10-18T06:54:18;18.30;99.90
4910;DHT22;2470;49.868;8.660;2022-10-18T06:56:44;18.30;99.90
4910;DHT22;2470;49.868;8.660;2022-10-18T06:59:09;18.30;99.90
4910;DHT22;2470;49.868;8.660;2022-10-18T07:01:35;18.30;99.90
4910;DHT22;2470;49.868;8.660;2022-10-18T07:04:01;18.30;99.90
4910;DHT22;2470;49.868;8.660;2022-10-18T07:06:26;18.30;99.90
4910;DHT22;2470;49.868;8.660;2022-10-18T07:08:52;18.30;99.90
4910;DHT22;2470;49.868;8.660;2022-10-18T07:11:22;18.30;99.90
4910;DHT22;2470;49.868;8.660;2022-10-18T07:13:49;18.30;99.90
4910;DHT22;2470;49.868;8.660;2022-10-18T07:16:17;18.40;99.90
4910;DHT22;2470;49.868;8.660;2022-10-18T07:18:46;18.40;99.90
4910;DHT22;2470;49.868;8.660;2022-10-18T07:21:15;18.50;99.90
4910;DHT22;2470;49.868;8.660;2022-10-18T07:23:43;18.50;99.90
4910;DHT22;2470;49.868;8.660;2022-10-18T07:26:16;18.50;99.90
4910;DHT22;2470;49.868;8.660;2022-10-18T07:28:44;18.50;99.90
4910;DHT22;2470;49.868;8.660;2022-10-18T07:31:10;18.50;99.90
4910;DHT22;2470;49.868;8.660;2022-10-18T07:33:36;18.60;99.90
4910;DHT22;2470;49.868;8.660;2022-10-18T07:36:06;18.60;99.90
4910;DHT22;2470;49.868;8.660;2022-10-18T07:38:33;18.60;99.90
4910;DHT22;2470;49.868;8.660;2022-10-18T07:41:00;18.70;99.90
4910;DHT22;2470;49.868;8.660;2022-10-18T07:43:26;18.70;99.90
4910;DHT22;2470;49.868;8.660;2022-10-18T07:45:53;18.80;99.90
4910;DHT22;2470;49.868;8.660;2022-10-18T07:48:19;18.80;99.90
4910;DHT22;2470;49.868;8.660;2022-10-18T07:50:45;18.90;99.90
4910;DHT22;2470;49.868;8.660;2022-10-18T07:53:11;19.00;99.90
4910;DHT22;2470;49.868;8.660;2022-10-18T07:55:36;19.00;99.90
4910;DHT22;2470;49.868;8.660;2022-10-18T07:58:02;19.00;99.90
4910;DHT22;2470;49.868;8.660;2022-10-18T08:00:27;19.10;99.90
4910;DHT22;2470;49.868;8.660;2022-10-18T08:02:57;19.10;99.90
4910;DHT22;2470;49.868;8.660;2022-10-18T08:05:23;19.00;99.90
4910;DHT22;2470;49.868;8.660;2022-10-18T08:07:49;19.00;99.90
4910;DHT22;2470;49.868;8.660;2022-10-18T08:10:14;19.10;99.90
4910;DHT22;2470;49.868;8.660;2022-10-18T08:12:40;19.00;99.90
4910;DHT22;2470;49.868;8.660;2022-10-18T08:15:06;18.90;99.90
4910;DHT22;2470;49.868;8.660;2022-10-18T08:17:32;18.90;99.90
4910;DHT22;2470;49.868;8.660;2022-10-18T08:19:57;18.90;99.90
4910;DHT22;2470;49.868;8.660;2022-10-18T08:22:23;18.90;99.90
4910;DHT22;2470;49.868;8.660;2022-10-18T08:24:48;18.90;99.90
4910;DHT22;2470;49.868;8.660;2022-10-18T08:27:14;18.80;99.90
4910;DHT22;2470;49.868;8.660;2022-10-18T08:29:40;18.90;99.90
4910;DHT22;2470;49.868;8.660;2022-10-18T08:32:05;19.00;99.90
4910;DHT22;2470;49.868;8.660;2022-10-18T08:34:34;19.10;99.90
4910;DHT22;2470;49.868;8.660;2022-10-18T08:37:01;19.40;99.90
4910;DHT22;2470;49.868;8.660;2022-10-18T08:39:27;19.60;99.90
4910;DHT22;2470;49.868;8.660;2022-10-18T08:42:22;19.80;99.90
4910;DHT22;2470;49.868;8.660;2022-10-18T08:44:50;19.90;99.90
4910;DHT22;2470;49.868;8.660;2022-10-18T08:47:18;19.90;99.90
4910;DHT22;2470;49.868;8.660;2022-10-18T08:49:52;19.90;99.90
4910;DHT22;2470;49.868;8.660;2022-10-18T08:52:42;19.90;99.90
4910;DHT22;2470;49.868;8.660;2022-10-18T08:57:44;20.00;99.90
4910;DHT22;2470;49.868;8.660;2022-10-18T09:00:15;20.00;99.90
4910;DHT22;2470;49.868;8.660;2022-10-18T09:03:00;20.00;99.90
4910;DHT22;2470;49.868;8.660;2022-10-18T09:05:35;19.80;99.90
4910;DHT22;2470;49.868;8.660;2022-10-18T09:10:52;19.60;99.90
4910;DHT22;2470;49.868;8.660;2022-10-18T09:17:08;19.50;99.90
4910;DHT22;2470;49.868;8.660;2022-10-18T09:19:16;19.50;99.90
4910;DHT22;2470;49.868;8.660;2022-10-18T09:21:51;19.60;99.90
4910;DHT22;2470;49.868;8.660;2022-10-18T09:24:25;19.70;99.90
4910;DHT22;2470;49.868;8.660;2022-10-18T09:26:57;19.70;99.90
4910;DHT22;2470;49.868;8.660;2022-10-18T09:32:32;19.80;99.90
4910;DHT22;2470;49.868;8.660;2022-10-18T09:35:19;19.80;99.90
4910;DHT22;2470;49.868;8.660;2022-10-18T09:37:46;19.70;99.90
4910;DHT22;2470;49.868;8.660;2022-10-18T09:40:22;19.70;99.90
4910;DHT22;2470;49.868;8.660;2022-10-18T09:42:58;19.70;99.90
4910;DHT22;2470;49.868;8.660;2022-10-18T09:45:35;19.60;99.90
4910;DHT22;2470;49.868;8.660;2022-10-18T09:50:47;19.60;99.90
4910;DHT22;2470;49.868;8.660;2022-10-18T09:58:41;20.00;99.90
4910;DHT22;2470;49.868;8.660;2022-10-18T10:01:08;20.20;99.90
4910;DHT22;2470;49.868;8.660;2022-10-18T10:03:34;20.40;99.90
4910;DHT22;2470;49.868;8.660;2022-10-18T10:08:41;20.60;99.90
4910;DHT22;2470;49.868;8.660;2022-10-18T10:11:48;20.70;99.90
4910;DHT22;2470;49.868;8.660;2022-10-18T10:14:21;20.70;99.90
4910;DHT22;2470;49.868;8.660;2022-10-18T10:17:02;20.60;99.90
4910;DHT22;2470;49.868;8.660;2022-10-18T10:19:36;20.50;99.90
4910;DHT22;2470;49.868;8.660;2022-10-18T10:24:52;20.70;99.90
4910;DHT22;2470;49.868;8.660;2022-10-18T10:29:55;21.10;99.90
4910;DHT22;2470;49.868;8.660;2022-10-18T10:32:23;21.20;99.90
4910;DHT22;2470;49.868;8.660;2022-10-18T10:34:50;21.20;99.90
4910;DHT22;2470;49.868;8.660;2022-10-18T10:37:34;21.20;99.90
4910;DHT22;2470;49.868;8.660;2022-10-18T10:40:16;21.00;99.90
4910;DHT22;2470;49.868;8.660;2022-10-18T10:45:36;20.70;99.90
4910;DHT22;2470;49.868;8.660;2022-10-18T10:48:14;20.60;99.90
4910;DHT22;2470;49.868;8.660;2022-10-18T10:50:58;20.50;99.90
4910;DHT22;2470;49.868;8.660;2022-10-18T10:53:59;20.60;99.90
4910;DHT22;2470;49.868;8.660;2022-10-18T10:56:27;20.60;99.90
4910;DHT22;2470;49.868;8.660;2022-10-18T10:58:56;20.70;99.90
4910;DHT22;2470;49.868;8.660;2022-10-18T11:01:28;20.80;99.90
4910;DHT22;2470;49.868;8.660;2022-10-18T11:04:01;21.00;99.90
4910;DHT22;2470;49.868;8.660;2022-10-18T11:06:32;21.00;99.90
4910;DHT22;2470;49.868;8.660;2022-10-18T11:09:03;21.00;99.90
4910;DHT22;2470;49.868;8.660;2022-10-18T11:11:33;21.00;99.90
4910;DHT22;2470;49.868;8.660;2022-10-18T11:14:25;20.90;99.90
4910;DHT22;2470;49.868;8.660;2022-10-18T11:19:58;20.70;99.90
4910;DHT22;2470;49.868;8.660;2022-10-18T11:22:31;20.70;99.90
4910;DHT22;2470;49.868;8.660;2022-10-18T11:24:58;20.70;99.90
4910;DHT22;2470;49.868;8.660;2022-10-18T11:27:38;20.60;99.90
4910;DHT22;2470;49.868;8.660;2022-10-18T11:30:40;20.50;99.90
4910;DHT22;2470;49.868;8.660;2022-10-18T11:33:30;20.60;99.90
4910;DHT22;2470;49.868;8.660;2022-10-18T11:36:09;20.60;99.90
4910;DHT22;2470;49.868;8.660;2022-10-18T11:46:36;20.40;99.90
4910;DHT22;2470;49.868;8.660;2022-10-18T11:52:09;20.20;99.90
4910;DHT22;2470;49.868;8.660;2022-10-18T11:57:42;20.20;99.90
4910;DHT22;2470;49.868;8.660;2022-10-18T12:00:18;20.10;99.90
4910;DHT22;2470;49.868;8.660;2022-10-18T12:03:14;20.00;99.90
4910;DHT22;2470;49.868;8.660;2022-10-18T12:05:43;20.10;99.90
4910;DHT22;2470;49.868;8.660;2022-10-18T12:10:40;20.40;99.90
4910;DHT22;2470;49.868;8.660;2022-10-18T12:13:14;20.60;99.90
4910;DHT22;2470;49.868;8.660;2022-10-18T12:15:41;20.80;99.90
4910;DHT22;2470;49.868;8.660;2022-10-18T12:18:15;21.20;99.90
4910;DHT22;2470;49.868;8.660;2022-10-18T12:20:47;21.60;99.90
4910;DHT22;2470;49.868;8.660;2022-10-18T12:26:06;22.00;99.90
4910;DHT22;2470;49.868;8.660;2022-10-18T12:33:42;23.00;99.90
4910;DHT22;2470;49.868;8.660;2022-10-18T12:39:01;23.80;99.90
4910;DHT22;2470;49.868;8.660;2022-10-18T12:41:30;23.70;99.90
4910;DHT22;2470;49.868;8.660;2022-10-18T12:44:02;23.40;99.90
4910;DHT22;2470;49.868;8.660;2022-10-18T12:46:48;23.00;99.90
4910;DHT22;2470;49.868;8.660;2022-10-18T12:49:26;22.60;99.90
4910;DHT22;2470;49.868;8.660;2022-10-18T12:51:54;22.20;99.90
4910;DHT22;2470;49.868;8.660;2022-10-18T12:54:31;21.90;99.90
4910;DHT22;2470;49.868;8.660;2022-10-18T12:57:02;21.70;99.90
4910;DHT22;2470;49.868;8.660;2022-10-18T13:17:35;24.40;99.90
4910;DHT22;2470;49.868;8.660;2022-10-18T13:23:24;23.70;99.90
4910;DHT22;2470;49.868;8.660;2022-10-18T13:29:00;23.20;99.90
4910;DHT22;2470;49.868;8.660;2022-10-18T13:31:45;22.80;99.90
4910;DHT22;2470;49.868;8.660;2022-10-18T13:34:22;22.50;99.90
4910;DHT22;2470;49.868;8.660;2022-10-18T13:39:40;22.20;99.90
4910;DHT22;2470;49.868;8.660;2022-10-18T13:42:28;22.10;99.90
4910;DHT22;2470;49.868;8.660;2022-10-18T13:47:56;21.90;99.90
4910;DHT22;2470;49.868;8.660;2022-10-18T13:50:35;21.90;99.90
4910;DHT22;2470;49.868;8.660;2022-10-18T13:53:23;21.80;99.90
4910;DHT22;2470;49.868;8.660;2022-10-18T13:58:43;21.50;99.90
4910;DHT22;2470;49.868;8.660;2022-10-18T14:03:54;21.30;99.90
4910;DHT22;2470;49.868;8.660;2022-10-18T14:06:41;21.30;99.90
4910;DHT22;2470;49.868;8.660;2022-10-18T14:09:18;21.20;99.90
4910;DHT22;2470;49.868;8.660;2022-10-18T14:19:15;20.90;99.90
4910;DHT22;2470;49.868;8.660;2022-10-18T14:21:47;20.80;99.90
4910;DHT22;2470;49.868;8.660;2022-10-18T14:24:22;20.70;99.90
4910;DHT22;2470;49.868;8.660;2022-10-18T14:27:27;20.60;99.90
4910;DHT22;2470;49.868;8.660;2022-10-18T14:32:45;20.50;99.90
4910;DHT22;2470;49.868;8.660;2022-10-18T14:35:20;20.50;99.90
4910;DHT22;2470;49.868;8.660;2022-10-18T14:37:51;20.40;99.90
4910;DHT22;2470;49.868;8.660;2022-10-18T14:40:37;20.40;99.90
4910;DHT22;2470;49.868;8.660;2022-10-18T14:43:17;20.30;99.90
4910;DHT22;2470;49.868;8.660;2022-10-18T14:45:43;20.30;99.90
4910;DHT22;2470;49.868;8.660;2022-10-18T14:48:21;20.30;99.90
4910;DHT22;2470;49.868;8.660;2022-10-18T14:50:56;20.30;99.90
4910;DHT22;2470;49.868;8.660;2022-10-18T14:53:28;20.30;99.90
4910;DHT22;2470;49.868;8.660;2022-10-18T14:56:01;20.30;99.90
4910;DHT22;2470;49.868;8.660;2022-10-18T14:58:30;20.30;99.90
4910;DHT22;2470;49.868;8.660;2022-10-18T15:00:57;20.30;99.90
4910;DHT22;2470;49.868;8.660;2022-10-18T15:03:24;20.20;99.90
4910;DHT22;2470;49.868;8.660;2022-10-18T15:05:54;20.20;99.90
4910;DHT22;2470;49.868;8.660;2022-10-18T15:08:21;20.20;99.90
4910;DHT22;2470;49.868;8.660;2022-10-18T15:10:48;20.40;99.90
4910;DHT22;2470;49.868;8.660;2022-10-18T15:13:14;20.40;99.90
4910;DHT22;2470;49.868;8.660;2022-10-18T15:15:40;20.40;99.90
4910;DHT22;2470;49.868;8.660;2022-10-18T15:18:21;20.50;99.90
4910;DHT22;2470;49.868;8.660;2022-10-18T15:21:06;20.50;99.90
4910;DHT22;2470;49.868;8.660;2022-10-18T15:23:32;20.60;99.90
4910;DHT22;2470;49.868;8.660;2022-10-18T15:26:04;20.60;99.90
4910;DHT22;2470;49.868;8.660;2022-10-18T15:28:39;20.60;99.90
4910;DHT22;2470;49.868;8.660;2022-10-18T15:31:26;20.50;99.90
4910;DHT22;2470;49.868;8.660;2022-10-18T15:33:53;20.50;99.90
4910;DHT22;2470;49.868;8.660;2022-10-18T15:36:31;20.40;99.90
4910;DHT22;2470;49.868;8.660;2022-10-18T15:39:07;20.40;99.90
4910;DHT22;2470;49.868;8.660;2022-10-18T15:41:41;20.30;99.90
4910;DHT22;2470;49.868;8.660;2022-10-18T15:44:45;20.30;99.90
4910;DHT22;2470;49.868;8.660;2022-10-18T15:54:46;20.20;99.90
4910;DHT22;2470;49.868;8.660;2022-10-18T15:57:12;20.10;99.90
4910;DHT22;2470;49.868;8.660;2022-10-18T15:59:54;20.00;99.90
4910;DHT22;2470;49.868;8.660;2022-10-18T16:02:21;20.10;99.90
4910;DHT22;2470;49.868;8.660;2022-10-18T16:04:47;20.00;99.90
4910;DHT22;2470;49.868;8.660;2022-10-18T16:07:13;19.90;99.90
4910;DHT22;2470;49.868;8.660;2022-10-18T16:09:38;19.80;99.90
4910;DHT22;2470;49.868;8.660;2022-10-18T16:12:04;19.80;99.90
4910;DHT22;2470;49.868;8.660;2022-10-18T16:14:30;19.80;99.90
4910;DHT22;2470;49.868;8.660;2022-10-18T16:17:01;19.80;99.90
4910;DHT22;2470;49.868;8.660;2022-10-18T16:19:27;19.70;99.90
4910;DHT22;2470;49.868;8.660;2022-10-18T16:21:53;19.70;99.90
4910;DHT22;2470;49.868;8.660;2022-10-18T16:24:19;19.60;99.90
4910;DHT22;2470;49.868;8.660;2022-10-18T16:26:46;19.60;99.90
4910;DHT22;2470;49.868;8.660;2022-10-18T16:29:20;19.70;99.90
4910;DHT22;2470;49.868;8.660;2022-10-18T16:31:49;19.60;99.90
4910;DHT22;2470;49.868;8.660;2022-10-18T16:34:16;19.50;99.90
4910;DHT22;2470;49.868;8.660;2022-10-18T16:36:42;19.40;99.90
4910;DHT22;2470;49.868;8.660;2022-10-18T16:39:13;19.40;99.90
4910;DHT22;2470;49.868;8.660;2022-10-18T16:41:42;19.40;99.90
4910;DHT22;2470;49.868;8.660;2022-10-18T16:44:07;19.40;99.90
4910;DHT22;2470;49.868;8.660;2022-10-18T16:46:34;19.40;99.90
4910;DHT22;2470;49.868;8.660;2022-10-18T16:49:00;19.40;99.90
4910;DHT22;2470;49.868;8.660;2022-10-18T16:51:25;19.40;99.90
4910;DHT22;2470;49.868;8.660;2022-10-18T16:53:51;19.40;99.90
4910;DHT22;2470;49.868;8.660;2022-10-18T16:56:28;19.40;99.90
4910;DHT22;2470;49.868;8.660;2022-10-18T16:58:55;19.30;99.90
4910;DHT22;2470;49.868;8.660;2022-10-18T17:01:22;19.30;99.90
4910;DHT22;2470;49.868;8.660;2022-10-18T17:03:48;19.30;99.90
4910;DHT22;2470;49.868;8.660;2022-10-18T17:06:17;19.30;99.90
4910;DHT22;2470;49.868;8.660;2022-10-18T17:08:43;19.30;99.90
4910;DHT22;2470;49.868;8.660;2022-10-18T17:11:10;19.30;99.90
4910;DHT22;2470;49.868;8.660;2022-10-18T17:13:36;19.20;99.90
4910;DHT22;2470;49.868;8.660;2022-10-18T17:16:03;19.20;99.90
4910;DHT22;2470;49.868;8.660;2022-10-18T17:18:29;19.20;99.90
4910;DHT22;2470;49.868;8.660;2022-10-18T17:20:56;19.20;99.90
4910;DHT22;2470;49.868;8.660;2022-10-18T17:23:24;19.20;99.90
4910;DHT22;2470;49.868;8.660;2022-10-18T17:25:50;19.10;99.90
4910;DHT22;2470;49.868;8.660;2022-10-18T17:28:16;19.10;99.90
4910;DHT22;2470;49.868;8.660;2022-10-18T17:30:43;19.10;99.90
4910;DHT22;2470;49.868;8.660;2022-10-18T17:33:09;19.10;99.90
4910;DHT22;2470;49.868;8.660;2022-10-18T17:35:35;19.10;99.90
4910;DHT22;2470;49.868;8.660;2022-10-18T17:38:00;19.10;99.90
4910;DHT22;2470;49.868;8.660;2022-10-18T17:40:26;19.10;99.90
4910;DHT22;2470;49.868;8.660;2022-10-18T17:42:52;19.10;99.90
4910;DHT22;2470;49.868;8.660;2022-10-18T17:45:19;19.10;99.90
4910;DHT22;2470;49.868;8.660;2022-10-18T17:47:45;19.10;99.90
4910;DHT22;2470;49.868;8.660;2022-10-18T17:50:11;19.10;99.90
4910;DHT22;2470;49.868;8.660;2022-10-18T17:52:41;19.00;99.90
4910;DHT22;2470;49.868;8.660;2022-10-18T17:55:07;19.00;99.90
4910;DHT22;2470;49.868;8.660;2022-10-18T17:57:33;19.00;99.90
4910;DHT22;2470;49.868;8.660;2022-10-18T17:59:58;19.00;99.90
4910;DHT22;2470;49.868;8.660;2022-10-18T18:02:24;19.00;99.90
4910;DHT22;2470;49.868;8.660;2022-10-18T18:04:58;19.00;99.90
4910;DHT22;2470;49.868;8.660;2022-10-18T18:07:27;19.00;99.90
4910;DHT22;2470;49.868;8.660;2022-10-18T18:09:52;19.00;99.90
4910;DHT22;2470;49.868;8.660;2022-10-18T18:12:18;19.00;99.90
4910;DHT22;2470;49.868;8.660;2022-10-18T18:14:43;19.00;99.90
4910;DHT22;2470;49.868;8.660;2022-10-18T18:17:09;18.90;99.90
4910;DHT22;2470;49.868;8.660;2022-10-18T18:19:35;18.90;99.90
4910;DHT22;2470;49.868;8.660;2022-10-18T18:22:00;18.90;99.90
4910;DHT22;2470;49.868;8.660;2022-10-18T18:24:26;18.80;99.90
4910;DHT22;2470;49.868;8.660;2022-10-18T18:26:53;18.80;99.90
4910;DHT22;2470;49.868;8.660;2022-10-18T18:29:24;18.70;99.90
4910;DHT22;2470;49.868;8.660;2022-10-18T18:31:51;18.70;99.90
4910;DHT22;2470;49.868;8.660;2022-10-18T18:34:17;18.70;99.90